createdAt,value
2023-03-02T00:00:20.878Z,9.53
2023-03-02T00:02:49.180Z,4.87
2023-03-02T00:05:17.519Z,5.37
2023-03-02T00:07:45.883Z,3.77
2023-03-02T00:10:14.190Z,3.33
2023-03-02T00:12:43.918Z,2.50
2023-03-02T00:15:12.478Z,1.97
2023-03-02T00:17:40.776Z,2.40
2023-03-02T00:20:12.284Z,3.00
2023-03-02T00:22:40.642Z,2.47
2023-03-02T00:25:09.195Z,2.27
2023-03-02T00:27:37.515Z,2.07
2023-03-02T00:30:07.653Z,1.97
2023-03-02T00:32:36.004Z,2.07
2023-03-02T00:35:04.373Z,3.10
2023-03-02T00:37:32.699Z,1.97
2023-03-02T00:40:01.025Z,2.00
2023-03-02T00:42:29.339Z,1.77
2023-03-02T00:45:01.507Z,2.20
2023-03-02T00:47:31.348Z,1.63
2023-03-02T00:49:59.614Z,2.93
2023-03-02T00:52:27.925Z,1.53
2023-03-02T00:54:56.263Z,1.07
2023-03-02T00:57:24.533Z,1.50
2023-03-02T00:59:52.777Z,1.67
2023-03-02T01:02:22.534Z,2.13
2023-03-02T01:04:53.217Z,1.80
2023-03-02T01:07:22.332Z,3.03
2023-03-02T01:09:50.746Z,1.77
2023-03-02T01:12:19.064Z,1.63
2023-03-02T01:14:47.867Z,1.80
2023-03-02T01:17:16.265Z,3.33
2023-03-02T01:19:44.560Z,1.27
2023-03-02T01:22:14.473Z,1.03
2023-03-02T01:24:42.783Z,2.10
2023-03-02T01:27:11.105Z,2.13
2023-03-02T01:29:39.478Z,1.50
2023-03-02T01:32:07.890Z,2.33
2023-03-02T01:34:36.834Z,4.10
2023-03-02T01:37:05.140Z,2.07
2023-03-02T01:39:34.804Z,2.20
2023-03-02T01:42:03.144Z,1.20
2023-03-02T01:44:38.330Z,3.17
2023-03-02T01:47:06.903Z,1.93
2023-03-02T01:49:35.316Z,1.40
2023-03-02T01:52:03.632Z,1.90
2023-03-02T01:54:32.017Z,2.20
2023-03-02T01:57:01.974Z,1.27
2023-03-02T01:59:30.330Z,2.93
2023-03-02T02:01:58.824Z,2.20
2023-03-02T02:04:27.536Z,1.60
2023-03-02T02:06:56.450Z,1.83
2023-03-02T02:09:24.788Z,1.87
2023-03-02T02:11:53.108Z,1.60
2023-03-02T02:14:22.834Z,1.73
2023-03-02T02:16:51.193Z,1.30
2023-03-02T02:19:20.392Z,1.83
2023-03-02T02:21:48.719Z,1.30
2023-03-02T02:24:18.218Z,1.60
2023-03-02T02:26:48.424Z,1.80
2023-03-02T02:29:19.418Z,1.90
2023-03-02T02:31:48.918Z,2.33
2023-03-02T02:34:22.632Z,1.67
2023-03-02T02:36:51.718Z,3.00
2023-03-02T02:39:21.358Z,1.73
2023-03-02T02:41:51.114Z,1.73
2023-03-02T02:44:19.737Z,2.73
2023-03-02T02:46:48.029Z,3.53
2023-03-02T02:49:19.732Z,1.90
2023-03-02T02:51:48.008Z,2.23
2023-03-02T02:54:16.737Z,0.97
2023-03-02T02:56:45.077Z,1.93
2023-03-02T02:59:15.656Z,2.93
2023-03-02T03:01:44.058Z,2.67
2023-03-02T03:04:12.495Z,2.10
2023-03-02T03:06:42.554Z,2.23
2023-03-02T03:09:11.485Z,3.30
2023-03-02T03:11:40.066Z,1.00
2023-03-02T03:14:09.737Z,2.73
2023-03-02T03:16:40.378Z,2.03
2023-03-02T03:19:10.179Z,1.43
2023-03-02T03:21:38.451Z,1.67
2023-03-02T03:24:07.220Z,1.00
2023-03-02T03:26:35.522Z,1.90
2023-03-02T03:29:04.100Z,1.73
2023-03-02T03:31:32.471Z,2.53
2023-03-02T03:34:02.157Z,2.17
2023-03-02T03:36:30.948Z,2.23
2023-03-02T03:38:59.592Z,1.70
2023-03-02T03:41:27.950Z,4.03
2023-03-02T03:43:56.259Z,1.17
2023-03-02T03:46:24.611Z,1.13
2023-03-02T03:48:52.962Z,1.97
2023-03-02T03:51:22.586Z,1.90
2023-03-02T03:54:00.023Z,1.27
2023-03-02T03:56:28.536Z,2.70
2023-03-02T03:59:06.359Z,3.37
2023-03-02T04:01:35.992Z,1.57
2023-03-02T04:04:04.440Z,1.30
2023-03-02T04:06:34.374Z,2.07
2023-03-02T04:09:04.982Z,2.20
2023-03-02T04:11:33.476Z,2.93
2023-03-02T04:14:01.753Z,2.30
2023-03-02T04:16:30.582Z,1.57
2023-03-02T04:18:59.175Z,1.33
2023-03-02T04:21:27.453Z,2.53
2023-03-02T04:23:57.156Z,2.40
2023-03-02T04:26:26.839Z,3.70
2023-03-02T04:28:55.132Z,1.37
2023-03-02T04:31:23.444Z,2.57
2023-03-02T04:33:51.769Z,1.73
2023-03-02T04:36:20.618Z,3.23
2023-03-02T04:38:48.942Z,1.83
2023-03-02T04:41:19.465Z,1.67
2023-03-02T04:43:47.788Z,1.57
2023-03-02T04:46:16.576Z,1.57
2023-03-02T04:48:44.997Z,1.47
2023-03-02T04:51:15.048Z,1.97
2023-03-02T04:53:43.427Z,1.90
2023-03-02T04:56:11.724Z,2.30
2023-03-02T04:58:41.355Z,1.37
2023-03-02T05:01:10.901Z,1.50
2023-03-02T05:03:39.267Z,2.13
2023-03-02T05:06:07.854Z,1.93
2023-03-02T05:08:36.180Z,1.13
2023-03-02T05:11:04.754Z,1.23
2023-03-02T05:13:33.056Z,3.73
2023-03-02T05:16:02.756Z,1.03
2023-03-02T05:18:31.236Z,2.30
2023-03-02T05:20:59.581Z,1.80
2023-03-02T05:23:31.552Z,1.80
2023-03-02T05:25:59.833Z,2.10
2023-03-02T05:28:28.102Z,1.47
2023-03-02T05:30:56.396Z,2.00
2023-03-02T05:33:26.068Z,2.37
2023-03-02T05:35:54.487Z,1.63
2023-03-02T05:38:22.801Z,2.13
2023-03-02T05:40:51.121Z,2.83
2023-03-02T05:43:20.536Z,1.77
2023-03-02T05:45:48.866Z,2.00
2023-03-02T05:48:17.266Z,2.53
2023-03-02T05:50:46.884Z,2.37
2023-03-02T05:53:15.169Z,1.87
2023-03-02T05:55:43.488Z,1.83
2023-03-02T05:58:14.399Z,2.17
2023-03-02T06:00:42.950Z,1.43
2023-03-02T06:03:11.263Z,2.10
2023-03-02T06:05:39.546Z,2.37
2023-03-02T06:08:09.241Z,1.17
2023-03-02T06:10:37.597Z,1.80
2023-03-02T06:13:05.912Z,1.40
2023-03-02T06:15:34.232Z,2.63
2023-03-02T06:18:02.621Z,2.77
2023-03-02T06:20:31.142Z,3.13
2023-03-02T06:22:59.468Z,1.73
2023-03-02T06:25:29.147Z,2.30
2023-03-02T06:27:57.456Z,1.93
2023-03-02T06:30:26.079Z,2.43
2023-03-02T06:32:54.503Z,2.37
2023-03-02T06:35:23.979Z,0.80
2023-03-02T06:37:52.545Z,1.57
2023-03-02T06:40:22.732Z,2.43
2023-03-02T06:42:52.477Z,1.60
2023-03-02T06:45:20.877Z,1.83
2023-03-02T06:47:49.192Z,1.77
2023-03-02T06:50:17.513Z,2.70
2023-03-02T06:52:45.840Z,2.53
2023-03-02T06:55:14.169Z,1.10
2023-03-02T06:57:42.468Z,2.83
2023-03-02T07:00:17.240Z,1.27
2023-03-02T07:02:45.908Z,2.80
2023-03-02T07:05:14.510Z,1.77
2023-03-02T07:07:42.862Z,1.57
2023-03-02T07:10:12.273Z,2.10
2023-03-02T07:12:40.644Z,0.87
2023-03-02T07:15:12.342Z,2.03
2023-03-02T07:17:42.039Z,1.27
2023-03-02T07:20:11.117Z,2.13
2023-03-02T07:22:39.414Z,2.63
2023-03-02T07:25:08.347Z,2.47
2023-03-02T07:27:36.643Z,1.67
2023-03-02T07:30:05.054Z,1.73
2023-03-02T07:32:33.395Z,1.50
2023-03-02T07:35:03.139Z,1.87
2023-03-02T07:37:31.497Z,1.83
2023-03-02T07:40:00.944Z,2.30
2023-03-02T07:42:29.394Z,1.10
2023-03-02T07:44:57.789Z,0.70
2023-03-02T07:47:26.076Z,1.33
2023-03-02T07:49:54.408Z,1.23
2023-03-02T07:52:24.090Z,1.27
2023-03-02T07:54:52.626Z,0.80
2023-03-02T07:57:20.973Z,2.07
2023-03-02T07:59:49.316Z,1.20
2023-03-02T08:02:18.078Z,0.83
2023-03-02T08:04:46.378Z,0.90
2023-03-02T08:07:14.711Z,0.87
2023-03-02T08:09:44.405Z,1.23
2023-03-02T08:12:12.718Z,2.90
2023-03-02T08:14:41.057Z,0.70
2023-03-02T08:17:09.418Z,1.00
2023-03-02T08:19:37.691Z,1.03
2023-03-02T08:22:06.016Z,1.30
2023-03-02T08:24:34.344Z,2.17
2023-03-02T08:27:04.321Z,1.00
2023-03-02T08:29:32.763Z,1.33
2023-03-02T08:32:01.205Z,0.80
2023-03-02T08:34:29.624Z,1.00
2023-03-02T08:36:57.972Z,1.37
2023-03-02T08:39:30.199Z,1.47
2023-03-02T08:41:58.567Z,0.93
2023-03-02T08:44:28.285Z,1.10
2023-03-02T08:46:56.621Z,1.07
2023-03-02T08:49:24.929Z,1.23
2023-03-02T08:51:56.361Z,1.00
2023-03-02T08:54:24.897Z,1.53
2023-03-02T08:56:53.222Z,0.90
2023-03-02T08:59:21.788Z,1.10
2023-03-02T09:01:51.483Z,1.23
2023-03-02T09:04:19.837Z,1.17
2023-03-02T09:06:48.550Z,6.93
2023-03-02T09:09:16.944Z,1.30
2023-03-02T09:11:46.431Z,0.60
2023-03-02T09:14:14.727Z,0.77
2023-03-02T09:16:43.114Z,1.80
2023-03-02T09:19:13.817Z,0.97
2023-03-02T09:21:42.125Z,0.80
2023-03-02T09:24:10.599Z,2.03
2023-03-02T09:26:39.351Z,0.80
2023-03-02T09:29:08.191Z,1.50
2023-03-02T09:31:37.084Z,0.77
2023-03-02T09:34:05.860Z,1.43
2023-03-02T09:36:35.562Z,0.90
2023-03-02T09:39:08.498Z,0.67
2023-03-02T09:41:40.720Z,0.40
2023-03-02T09:44:12.747Z,0.73
2023-03-02T09:46:44.302Z,0.80
2023-03-02T09:49:15.457Z,0.97
2023-03-02T09:51:47.474Z,1.60
2023-03-02T09:54:16.202Z,2.43
2023-03-02T09:56:45.335Z,1.53
2023-03-02T09:59:21.977Z,1.13
2023-03-02T10:01:50.796Z,0.80
2023-03-02T10:04:20.722Z,0.93
2023-03-02T10:06:50.441Z,1.80
2023-03-02T10:09:18.727Z,1.30
2023-03-02T10:11:51.697Z,1.17
2023-03-02T10:14:21.053Z,1.43
2023-03-02T10:16:49.883Z,0.50
2023-03-02T10:19:19.404Z,0.97
2023-03-02T10:21:48.368Z,0.90
2023-03-02T10:24:23.130Z,1.60
2023-03-02T10:26:52.585Z,1.33
2023-03-02T10:29:27.248Z,0.67
2023-03-02T10:31:56.128Z,1.93
2023-03-02T10:34:25.360Z,0.50
2023-03-02T10:36:53.707Z,1.27
2023-03-02T10:39:23.375Z,0.60
2023-03-02T10:41:51.967Z,0.70
2023-03-02T10:44:21.301Z,0.63
2023-03-02T10:46:51.240Z,1.00
2023-03-02T10:49:24.898Z,1.47
2023-03-02T10:51:56.974Z,2.50
2023-03-02T10:54:28.743Z,1.50
2023-03-02T10:56:57.591Z,3.23
2023-03-02T10:59:34.230Z,3.10
2023-03-02T11:02:02.909Z,3.20
2023-03-02T11:04:31.274Z,2.07
2023-03-02T11:07:08.885Z,0.80
2023-03-02T11:09:38.753Z,3.00
2023-03-02T11:12:07.206Z,2.13
2023-03-02T11:14:35.619Z,2.30
2023-03-02T11:17:04.073Z,3.33
2023-03-02T11:19:33.273Z,5.07
2023-03-02T11:22:02.506Z,2.20
2023-03-02T11:24:31.564Z,4.20
2023-03-02T11:27:03.352Z,3.10
2023-03-02T11:29:33.018Z,2.47
2023-03-02T11:32:02.114Z,2.37
2023-03-02T11:34:31.143Z,3.63
2023-03-02T11:37:23.363Z,4.30
2023-03-02T11:40:05.552Z,5.00
2023-03-02T11:42:36.220Z,3.47
2023-03-02T11:45:10.142Z,4.07
2023-03-02T11:47:38.166Z,5.60
2023-03-02T11:50:06.999Z,4.33
2023-03-02T11:52:38.976Z,6.57
2023-03-02T11:55:14.202Z,5.67
2023-03-02T11:57:48.673Z,5.07
2023-03-02T12:00:23.677Z,6.20
2023-03-02T12:03:00.675Z,3.13
2023-03-02T12:05:29.711Z,5.07
2023-03-02T12:07:58.824Z,4.87
2023-03-02T12:10:28.634Z,4.77
2023-03-02T12:13:04.993Z,8.57
2023-03-02T12:15:38.497Z,3.57
2023-03-02T12:18:31.246Z,4.97
2023-03-02T12:21:03.613Z,3.53
2023-03-02T12:23:32.038Z,3.57
2023-03-02T12:26:05.475Z,2.23
2023-03-02T12:28:36.451Z,7.60
2023-03-02T12:31:06.617Z,3.43
2023-03-02T12:33:39.581Z,3.37
2023-03-02T12:36:13.173Z,2.17
2023-03-02T12:38:41.468Z,2.00
2023-03-02T12:41:19.326Z,2.33
2023-03-02T12:43:54.587Z,2.40
2023-03-02T12:46:28.173Z,2.53
2023-03-02T12:49:21.313Z,2.47
2023-03-02T12:51:52.606Z,1.67
2023-03-02T12:54:21.848Z,2.23
2023-03-02T12:56:49.941Z,2.27
2023-03-02T12:59:25.957Z,2.73
2023-03-02T13:01:53.932Z,1.27
2023-03-02T13:04:23.457Z,3.93
2023-03-02T13:06:51.551Z,1.93
2023-03-02T13:09:20.393Z,1.10
2023-03-02T13:11:49.088Z,0.70
2023-03-02T13:14:21.591Z,1.93
2023-03-02T13:16:58.376Z,1.07
2023-03-02T13:19:26.611Z,0.83
2023-03-02T13:21:54.632Z,2.30
2023-03-02T13:24:32.778Z,1.07
2023-03-02T13:27:01.737Z,2.37
2023-03-02T13:29:31.903Z,1.23
2023-03-02T13:32:15.450Z,9.03
2023-03-02T13:34:48.227Z,1.40
2023-03-02T13:37:37.736Z,2.00
2023-03-02T13:40:07.353Z,1.87
2023-03-02T13:42:39.657Z,3.03
2023-03-02T13:45:20.753Z,1.10
2023-03-02T13:47:50.118Z,1.73
2023-03-02T13:50:21.757Z,1.20
2023-03-02T13:52:50.241Z,0.63
2023-03-02T13:55:20.380Z,1.70
2023-03-02T13:57:48.477Z,1.10
2023-03-02T14:00:18.004Z,1.00
2023-03-02T14:02:47.582Z,1.30
2023-03-02T14:05:21.925Z,0.97
2023-03-02T14:07:50.014Z,2.07
2023-03-02T14:10:18.879Z,1.53
2023-03-02T14:12:52.696Z,1.30
2023-03-02T14:15:20.714Z,1.10
2023-03-02T14:17:49.369Z,2.00
2023-03-02T14:20:19.542Z,1.93
2023-03-02T14:22:49.190Z,2.63
2023-03-02T14:25:17.348Z,1.83
2023-03-02T14:27:47.234Z,0.73
2023-03-02T14:30:17.130Z,1.10
2023-03-02T14:32:45.427Z,5.23
2023-03-02T14:35:13.906Z,1.10
2023-03-02T14:37:43.306Z,1.77
2023-03-02T14:40:17.630Z,1.00
2023-03-02T14:42:48.495Z,1.10
2023-03-02T14:45:17.282Z,0.97
2023-03-02T14:47:45.599Z,1.37
2023-03-02T14:50:13.924Z,2.00
2023-03-02T14:52:42.725Z,2.00
2023-03-02T14:55:14.653Z,1.17
2023-03-02T14:57:43.036Z,0.87
2023-03-02T15:00:15.431Z,1.63
2023-03-02T15:02:43.869Z,1.20
2023-03-02T15:05:12.272Z,1.77
2023-03-02T15:07:40.998Z,2.40
2023-03-02T15:10:09.823Z,1.67
2023-03-02T15:12:38.125Z,1.47
2023-03-02T15:15:06.725Z,2.43
2023-03-02T15:17:36.413Z,1.67
2023-03-02T15:20:06.149Z,1.47
2023-03-02T15:22:34.427Z,2.30
2023-03-02T15:25:02.778Z,1.80
2023-03-02T15:27:31.054Z,1.80
2023-03-02T15:29:59.636Z,8.40
2023-03-02T15:32:28.050Z,1.67
2023-03-02T15:34:57.755Z,2.33
2023-03-02T15:37:26.097Z,2.77
2023-03-02T15:39:55.788Z,1.83
2023-03-02T15:42:24.431Z,3.37
2023-03-02T15:44:52.775Z,2.37
2023-03-02T15:47:21.108Z,3.33
2023-03-02T15:49:49.555Z,1.70
2023-03-02T15:52:20.040Z,1.57
2023-03-02T15:54:48.402Z,1.97
2023-03-02T15:57:17.594Z,1.47
2023-03-02T15:59:46.296Z,1.77
2023-03-02T16:02:15.201Z,2.47
2023-03-02T16:04:43.575Z,1.97
2023-03-02T16:07:11.921Z,3.53
2023-03-02T16:09:41.666Z,1.10
2023-03-02T16:12:09.970Z,1.30
2023-03-02T16:14:38.400Z,1.30
2023-03-02T16:17:06.730Z,1.43
2023-03-02T16:19:35.045Z,2.07
2023-03-02T16:22:03.417Z,1.63
2023-03-02T16:24:31.714Z,1.83
2023-03-02T16:27:01.603Z,2.90
2023-03-02T16:29:31.117Z,4.37
2023-03-02T16:31:59.505Z,1.83
2023-03-02T16:34:27.820Z,1.30
2023-03-02T16:36:56.150Z,3.37
2023-03-02T16:39:24.549Z,2.43
2023-03-02T16:41:52.902Z,1.50
2023-03-02T16:44:22.769Z,1.77
2023-03-02T16:46:51.328Z,2.47
2023-03-02T16:49:19.714Z,1.83
2023-03-02T16:51:48.027Z,1.40
2023-03-02T16:54:16.516Z,1.83
2023-03-02T16:56:45.274Z,1.93
2023-03-02T16:59:13.727Z,1.83
2023-03-02T17:01:43.497Z,1.53
2023-03-02T17:04:11.924Z,1.83
2023-03-02T17:06:41.755Z,1.63
2023-03-02T17:09:13.536Z,2.13
2023-03-02T17:11:41.929Z,1.97
2023-03-02T17:14:11.267Z,1.20
2023-03-02T17:16:41.476Z,1.77
2023-03-02T17:19:11.237Z,2.77
2023-03-02T17:21:39.540Z,1.97
2023-03-02T17:24:08.076Z,4.17
2023-03-02T17:26:36.374Z,0.77
2023-03-02T17:29:04.958Z,1.17
2023-03-02T17:31:33.339Z,1.37
2023-03-02T17:34:01.659Z,2.73
2023-03-02T17:36:31.399Z,1.93
2023-03-02T17:38:59.720Z,1.73
2023-03-02T17:41:28.106Z,1.17
2023-03-02T17:43:56.382Z,3.37
2023-03-02T17:46:25.754Z,2.97
2023-03-02T17:48:54.757Z,2.60
2023-03-02T17:51:23.089Z,2.93
2023-03-02T17:53:53.124Z,2.07
2023-03-02T17:56:22.131Z,2.77
2023-03-02T17:58:53.441Z,4.30
2023-03-02T18:01:21.713Z,1.50
2023-03-02T18:03:50.183Z,0.90
2023-03-02T18:06:20.616Z,1.50
2023-03-02T18:08:49.335Z,2.07
2023-03-02T18:11:19.495Z,2.43
2023-03-02T18:13:47.875Z,2.23
2023-03-02T18:16:16.319Z,1.40
2023-03-02T18:18:44.693Z,2.33
2023-03-02T18:21:13.022Z,1.80
2023-03-02T18:23:41.994Z,2.20
2023-03-02T18:26:11.276Z,1.30
2023-03-02T18:28:41.735Z,2.60
2023-03-02T18:31:11.304Z,1.60
2023-03-02T18:33:39.681Z,3.00
2023-03-02T18:36:08.312Z,2.20
2023-03-02T18:38:36.612Z,3.47
2023-03-02T18:41:05.595Z,2.63
2023-03-02T18:43:34.753Z,4.87
2023-03-02T18:46:04.770Z,4.30
2023-03-02T18:48:33.062Z,6.10
2023-03-02T18:51:01.449Z,6.57
2023-03-02T18:53:29.699Z,3.53
2023-03-02T18:55:58.280Z,4.40
2023-03-02T18:58:26.613Z,5.33
2023-03-02T19:00:54.977Z,5.10
2023-03-02T19:03:24.764Z,5.50
2023-03-02T19:05:53.232Z,5.27
2023-03-02T19:08:23.483Z,4.70
2023-03-02T19:10:51.798Z,5.63
2023-03-02T19:13:20.237Z,8.00
2023-03-02T19:15:48.580Z,5.17
2023-03-02T19:18:17.052Z,6.30
2023-03-02T19:20:46.851Z,6.53
2023-03-02T19:23:15.115Z,5.50
2023-03-02T19:25:43.425Z,6.07
2023-03-02T19:28:11.949Z,7.00
2023-03-02T19:30:41.062Z,5.43
2023-03-02T19:33:09.989Z,6.13
2023-03-02T19:35:38.798Z,5.13
2023-03-02T19:38:08.572Z,6.07
2023-03-02T19:40:37.027Z,5.93
2023-03-02T19:43:05.642Z,8.33
2023-03-02T19:45:35.616Z,4.57
2023-03-02T19:48:05.702Z,4.80
2023-03-02T19:50:34.051Z,6.83
2023-03-02T19:53:02.365Z,5.60
2023-03-02T19:55:32.051Z,6.73
2023-03-02T19:58:02.044Z,5.87
2023-03-02T20:00:30.885Z,9.03
2023-03-02T20:02:59.201Z,6.63
2023-03-02T20:05:27.815Z,6.00
2023-03-02T20:07:56.262Z,6.00
2023-03-02T20:10:28.230Z,5.93
2023-03-02T20:12:59.381Z,6.43
2023-03-02T20:15:27.914Z,5.57
2023-03-02T20:17:56.280Z,6.37
2023-03-02T20:20:26.965Z,7.50
2023-03-02T20:22:55.377Z,8.00
2023-03-02T20:25:23.699Z,6.50
2023-03-02T20:27:52.995Z,6.27
2023-03-02T20:30:23.826Z,7.97
2023-03-02T20:32:52.460Z,8.87
2023-03-02T20:35:21.023Z,9.20
2023-03-02T20:37:49.604Z,6.77
2023-03-02T20:40:17.928Z,7.97
2023-03-02T20:42:46.256Z,10.60
2023-03-02T20:45:14.729Z,7.83
2023-03-02T20:47:44.783Z,6.87
2023-03-02T20:50:14.833Z,7.63
2023-03-02T20:52:43.130Z,6.97
2023-03-02T20:55:12.003Z,7.03
2023-03-02T20:57:40.328Z,10.93
2023-03-02T21:00:09.330Z,6.77
2023-03-02T21:02:37.650Z,7.50
2023-03-02T21:05:07.733Z,9.83
2023-03-02T21:07:36.712Z,10.13
2023-03-02T21:10:05.338Z,7.93
2023-03-02T21:12:34.198Z,10.00
2023-03-02T21:15:03.131Z,11.60
2023-03-02T21:17:31.711Z,9.27
2023-03-02T21:20:00.228Z,10.10
2023-03-02T21:22:29.963Z,9.20
2023-03-02T21:24:58.291Z,7.63
2023-03-02T21:27:26.672Z,8.90
2023-03-02T21:29:54.942Z,5.67
2023-03-02T21:32:23.342Z,7.20
2023-03-02T21:34:51.676Z,7.90
2023-03-02T21:37:20.019Z,8.57
2023-03-02T21:39:49.851Z,8.17
2023-03-02T21:42:18.191Z,8.83
2023-03-02T21:44:46.482Z,6.17
2023-03-02T21:47:14.794Z,8.27
2023-03-02T21:49:43.129Z,7.13
2023-03-02T21:52:11.423Z,8.10
2023-03-02T21:54:39.796Z,9.97
2023-03-02T21:57:09.642Z,8.17
2023-03-02T21:59:38.365Z,8.50
2023-03-02T22:02:06.783Z,7.20
2023-03-02T22:04:35.727Z,9.70
2023-03-02T22:07:04.066Z,8.40
2023-03-02T22:09:32.438Z,9.63
2023-03-02T22:12:00.723Z,7.27
2023-03-02T22:14:30.534Z,7.73
2023-03-02T22:16:58.834Z,7.80
2023-03-02T22:19:27.944Z,7.27
2023-03-02T22:21:56.280Z,7.50
2023-03-02T22:24:25.263Z,7.57
2023-03-02T22:26:59.205Z,6.43
2023-03-02T22:29:27.897Z,7.70
2023-03-02T22:31:57.875Z,9.00
2023-03-02T22:34:26.688Z,6.37
2023-03-02T22:36:57.326Z,7.00
2023-03-02T22:39:28.914Z,8.17
2023-03-02T22:42:00.729Z,6.47
2023-03-02T22:44:29.092Z,7.23
2023-03-02T22:46:58.847Z,7.27
2023-03-02T22:49:27.188Z,7.87
2023-03-02T22:51:55.581Z,7.07
2023-03-02T22:54:24.487Z,8.97
2023-03-02T22:56:53.037Z,7.17
2023-03-02T22:59:22.453Z,7.87
2023-03-02T23:01:50.741Z,9.17
2023-03-02T23:04:21.486Z,8.23
2023-03-02T23:06:50.277Z,6.27
2023-03-02T23:09:20.910Z,7.40
2023-03-02T23:11:49.599Z,4.47
2023-03-02T23:14:24.825Z,5.37
2023-03-02T23:17:00.197Z,4.83
2023-03-02T23:19:30.207Z,5.20
2023-03-02T23:21:58.465Z,6.43
2023-03-02T23:24:27.380Z,5.50
2023-03-02T23:26:55.730Z,3.90
2023-03-02T23:29:23.988Z,5.30
2023-03-02T23:31:52.571Z,4.60
2023-03-02T23:34:20.973Z,5.53
2023-03-02T23:36:50.672Z,4.73
2023-03-02T23:39:18.989Z,4.63
2023-03-02T23:41:47.670Z,4.83
2023-03-02T23:44:16.065Z,3.60
2023-03-02T23:46:44.774Z,3.30
2023-03-02T23:49:13.095Z,5.23
2023-03-02T23:51:41.393Z,3.73
2023-03-02T23:54:11.064Z,4.53
2023-03-02T23:56:39.347Z,4.47
2023-03-02T23:59:07.671Z,3.17
